createdAt,value
2022-10-04T00:02:12.215Z,12.60
2022-10-04T00:04:58.498Z,12.60
2022-10-04T00:07:31.045Z,12.60
2022-10-04T00:10:07.522Z,12.50
2022-10-04T00:12:40.365Z,12.50
2022-10-04T00:15:37.360Z,12.50
2022-10-04T00:18:28.669Z,12.50
2022-10-04T00:20:58.324Z,12.50
2022-10-04T00:23:25.035Z,12.50
2022-10-04T00:25:53.752Z,12.60
2022-10-04T00:28:20.447Z,12.50
2022-10-04T00:31:07.749Z,12.50
2022-10-04T00:33:49.679Z,12.50
2022-10-04T00:36:25.227Z,12.50
2022-10-04T00:39:18.348Z,12.60
2022-10-04T00:41:57.519Z,12.60
2022-10-04T00:44:33.801Z,12.60
2022-10-04T00:47:02.515Z,12.70
2022-10-04T00:49:42.899Z,12.70
2022-10-04T00:52:21.000Z,12.60
2022-10-04T00:54:51.378Z,12.60
2022-10-04T00:57:23.430Z,12.60
2022-10-04T01:00:03.106Z,12.50
2022-10-04T01:02:45.204Z,12.50
2022-10-04T01:05:28.365Z,12.50
2022-10-04T01:08:00.832Z,12.50
2022-10-04T01:10:30.260Z,12.50
2022-10-04T01:13:04.013Z,12.50
2022-10-04T01:15:43.159Z,12.50
2022-10-04T01:18:10.117Z,12.60
2022-10-04T01:20:40.414Z,12.70
2022-10-04T01:23:10.109Z,12.70
2022-10-04T01:25:50.949Z,12.60
2022-10-04T01:28:18.089Z,12.40
2022-10-04T01:30:45.043Z,12.40
2022-10-04T01:33:13.169Z,12.50
2022-10-04T01:35:40.462Z,12.70
2022-10-04T01:38:07.597Z,12.80
2022-10-04T01:40:46.189Z,12.70
2022-10-04T01:43:21.081Z,12.70
2022-10-04T01:45:53.435Z,12.50
2022-10-04T01:48:24.512Z,12.50
2022-10-04T01:51:00.035Z,12.40
2022-10-04T01:53:32.124Z,12.40
2022-10-04T01:56:17.501Z,12.50
2022-10-04T01:58:53.978Z,12.40
2022-10-04T02:01:50.250Z,12.50
2022-10-04T02:04:22.234Z,12.40
2022-10-04T02:06:55.573Z,12.30
2022-10-04T02:09:29.334Z,12.10
2022-10-04T02:11:58.434Z,12.20
2022-10-04T02:14:33.249Z,12.10
2022-10-04T02:17:02.242Z,12.00
2022-10-04T02:19:36.816Z,11.90
2022-10-04T02:22:05.453Z,11.80
2022-10-04T02:24:40.361Z,11.60
2022-10-04T02:27:07.192Z,11.50
2022-10-04T02:29:34.992Z,11.50
2022-10-04T02:32:23.240Z,11.40
2022-10-04T02:34:50.523Z,11.40
2022-10-04T02:37:18.444Z,11.40
2022-10-04T02:39:48.898Z,11.40
2022-10-04T02:42:25.921Z,11.40
2022-10-04T02:45:13.141Z,11.30
2022-10-04T02:47:51.813Z,11.30
2022-10-04T02:50:28.362Z,11.30
2022-10-04T02:53:01.476Z,11.30
2022-10-04T02:55:31.092Z,11.30
2022-10-04T02:58:00.674Z,11.30
2022-10-04T03:00:30.436Z,11.20
2022-10-04T03:03:30.685Z,11.30
2022-10-04T03:06:03.365Z,11.20
2022-10-04T03:08:36.485Z,11.20
2022-10-04T03:11:05.256Z,11.20
2022-10-04T03:13:32.692Z,11.30
2022-10-04T03:15:59.583Z,11.20
2022-10-04T03:18:26.461Z,11.10
2022-10-04T03:20:53.213Z,11.10
2022-10-04T03:23:21.019Z,11.10
2022-10-04T03:26:01.030Z,11.10
2022-10-04T03:28:29.436Z,11.00
2022-10-04T03:30:58.079Z,11.00
2022-10-04T03:33:26.939Z,11.10
2022-10-04T03:35:57.031Z,10.90
2022-10-04T03:38:26.430Z,11.00
2022-10-04T03:40:57.702Z,11.00
2022-10-04T03:43:28.942Z,10.90
2022-10-04T03:45:58.407Z,10.80
2022-10-04T03:48:30.556Z,10.80
2022-10-04T03:50:58.699Z,10.70
2022-10-04T03:53:31.251Z,10.70
2022-10-04T03:56:03.989Z,10.70
2022-10-04T03:58:33.028Z,10.70
2022-10-04T04:01:23.404Z,10.70
2022-10-04T04:04:17.640Z,10.60
2022-10-04T04:06:57.583Z,10.60
2022-10-04T04:09:46.463Z,10.60
2022-10-04T04:12:25.743Z,10.60
2022-10-04T04:14:53.851Z,10.50
2022-10-04T04:17:27.211Z,10.40
2022-10-04T04:19:57.434Z,10.40
2022-10-04T04:22:24.787Z,10.30
2022-10-04T04:24:52.084Z,10.40
2022-10-04T04:27:20.345Z,10.40
2022-10-04T04:29:52.856Z,10.50
2022-10-04T04:32:25.099Z,10.30
2022-10-04T04:35:00.818Z,10.30
2022-10-04T04:37:27.480Z,10.20
2022-10-04T04:39:57.888Z,10.20
2022-10-04T04:42:33.212Z,10.20
2022-10-04T04:45:03.760Z,10.20
2022-10-04T04:47:44.159Z,10.10
2022-10-04T04:50:18.814Z,10.10
2022-10-04T04:52:55.445Z,10.10
2022-10-04T04:56:02.719Z,10.10
2022-10-04T04:58:33.262Z,10.20
2022-10-04T05:01:09.158Z,10.00
2022-10-04T05:03:36.033Z,10.00
2022-10-04T05:06:04.905Z,10.00
2022-10-04T05:08:40.228Z,10.10
2022-10-04T05:11:08.299Z,10.10
2022-10-04T05:13:58.293Z,10.10
2022-10-04T05:16:30.792Z,10.80
2022-10-04T05:19:03.922Z,10.90
2022-10-04T05:21:33.050Z,10.90
2022-10-04T05:24:11.709Z,10.90
2022-10-04T05:26:38.698Z,10.90
2022-10-04T05:29:15.775Z,10.70
2022-10-04T05:31:50.681Z,10.80
2022-10-04T05:34:29.079Z,12.60
2022-10-04T05:37:20.760Z,13.30
2022-10-04T05:40:15.346Z,13.50
2022-10-04T05:42:45.726Z,13.50
2022-10-04T05:45:23.191Z,13.90
2022-10-04T05:47:53.618Z,13.80
2022-10-04T05:50:28.692Z,13.80
2022-10-04T05:53:28.854Z,13.90
2022-10-04T05:56:28.630Z,13.30
2022-10-04T05:59:21.527Z,13.80
2022-10-04T06:02:10.212Z,13.10
2022-10-04T06:05:00.216Z,12.50
2022-10-04T06:07:46.382Z,12.20
2022-10-04T06:10:44.300Z,11.40
2022-10-04T06:13:30.917Z,11.20
2022-10-04T06:16:09.527Z,11.20
2022-10-04T06:19:03.567Z,10.90
2022-10-04T06:22:02.350Z,10.90
2022-10-04T06:24:34.641Z,10.90
2022-10-04T06:27:35.990Z,10.80
2022-10-04T06:30:13.039Z,10.90
2022-10-04T06:32:54.576Z,10.60
2022-10-04T06:35:42.697Z,10.90
2022-10-04T06:38:44.590Z,11.00
2022-10-04T06:41:39.016Z,11.10
2022-10-04T06:44:46.239Z,11.00
2022-10-04T06:47:44.075Z,10.90
2022-10-04T06:50:24.967Z,10.90
2022-10-04T06:53:04.157Z,11.30
2022-10-04T06:55:37.189Z,11.30
2022-10-04T06:58:23.207Z,11.60
2022-10-04T07:00:56.680Z,11.70
2022-10-04T07:03:51.355Z,12.10
2022-10-04T07:06:36.568Z,12.50
2022-10-04T07:09:05.534Z,12.80
2022-10-04T07:11:49.786Z,13.00
2022-10-04T07:14:27.344Z,13.30
2022-10-04T07:17:01.235Z,13.30
2022-10-04T07:19:30.747Z,13.10
2022-10-04T07:22:12.144Z,13.00
2022-10-04T07:24:56.358Z,13.30
2022-10-04T07:28:18.515Z,13.20
2022-10-04T07:31:06.312Z,13.20
2022-10-04T07:33:41.570Z,13.30
2022-10-04T07:36:13.676Z,13.60
2022-10-04T07:39:07.485Z,14.00
2022-10-04T07:41:53.528Z,14.10
2022-10-04T07:44:32.741Z,14.50
2022-10-04T07:47:05.722Z,14.80
2022-10-04T07:49:39.395Z,14.90
2022-10-04T07:52:44.553Z,15.20
2022-10-04T07:55:37.698Z,15.20
2022-10-04T07:58:07.494Z,15.00
2022-10-04T08:01:01.478Z,15.00
2022-10-04T08:03:49.404Z,14.80
2022-10-04T08:06:35.302Z,15.00
2022-10-04T08:09:33.857Z,14.90
2022-10-04T08:12:18.104Z,14.90
2022-10-04T08:14:53.606Z,14.80
2022-10-04T08:17:27.090Z,15.00
2022-10-04T08:20:02.976Z,15.20
2022-10-04T08:23:02.047Z,15.10
2022-10-04T08:25:48.983Z,15.00
2022-10-04T08:28:57.060Z,15.20
2022-10-04T08:31:29.465Z,15.10
2022-10-04T08:34:26.939Z,15.40
2022-10-04T08:37:28.484Z,15.40
2022-10-04T08:40:25.111Z,15.40
2022-10-04T08:43:21.296Z,15.40
2022-10-04T08:46:18.879Z,15.30
2022-10-04T08:48:59.505Z,15.40
2022-10-04T08:51:44.604Z,15.30
2022-10-04T08:54:36.421Z,15.40
2022-10-04T08:57:32.395Z,15.40
2022-10-04T09:00:17.334Z,15.50
2022-10-04T09:02:46.405Z,15.60
2022-10-04T09:05:46.785Z,15.70
2022-10-04T09:08:19.419Z,15.70
2022-10-04T09:10:55.280Z,15.70
2022-10-04T09:13:48.066Z,15.60
2022-10-04T09:16:48.401Z,15.60
2022-10-04T09:19:41.392Z,15.50
2022-10-04T09:22:19.964Z,15.60
2022-10-04T09:25:04.832Z,15.80
2022-10-04T09:27:54.592Z,15.80
2022-10-04T09:30:59.694Z,15.90
2022-10-04T09:34:01.200Z,15.80
2022-10-04T09:37:01.518Z,15.80
2022-10-04T09:40:06.596Z,15.80
2022-10-04T09:43:00.976Z,15.60
2022-10-04T09:45:42.500Z,16.00
2022-10-04T09:48:30.101Z,16.00
2022-10-04T09:51:15.587Z,15.90
2022-10-04T09:54:11.628Z,15.70
2022-10-04T09:56:53.588Z,15.70
2022-10-04T09:59:36.588Z,15.80
2022-10-04T10:02:28.946Z,16.00
2022-10-04T10:05:57.449Z,16.10
2022-10-04T10:08:42.854Z,16.20
2022-10-04T10:11:50.539Z,16.40
2022-10-04T10:14:35.757Z,16.40
2022-10-04T10:17:36.475Z,16.30
2022-10-04T10:20:40.559Z,16.00
2022-10-04T10:23:45.963Z,16.20
2022-10-04T10:26:15.653Z,16.40
2022-10-04T10:29:16.272Z,16.40
2022-10-04T10:32:04.440Z,16.40
2022-10-04T10:34:56.093Z,16.40
2022-10-04T10:37:42.563Z,16.30
2022-10-04T10:40:41.134Z,16.30
2022-10-04T10:43:34.941Z,16.50
2022-10-04T10:46:31.284Z,16.50
2022-10-04T10:49:31.477Z,16.50
2022-10-04T10:52:17.505Z,16.40
2022-10-04T10:55:19.430Z,16.50
2022-10-04T10:57:59.477Z,16.50
2022-10-04T11:00:53.842Z,16.50
2022-10-04T11:03:51.599Z,16.60
2022-10-04T11:06:55.753Z,16.60
2022-10-04T11:09:34.202Z,16.50
2022-10-04T11:12:31.139Z,16.60
2022-10-04T11:15:30.416Z,16.70
2022-10-04T11:18:33.901Z,16.70
2022-10-04T11:21:39.261Z,16.60
2022-10-04T11:24:28.877Z,16.60
2022-10-04T11:27:33.037Z,16.60
2022-10-04T11:30:23.507Z,16.60
2022-10-04T11:32:50.128Z,16.70
2022-10-04T11:35:50.919Z,16.60
2022-10-04T11:38:51.119Z,16.80
2022-10-04T11:41:39.360Z,16.80
2022-10-04T11:44:07.052Z,16.80
2022-10-04T11:46:51.867Z,16.80
2022-10-04T11:49:42.458Z,16.90
2022-10-04T11:52:24.231Z,16.80
2022-10-04T11:55:17.826Z,16.70
2022-10-04T11:57:54.965Z,16.80
2022-10-04T12:00:41.450Z,16.80
2022-10-04T12:03:29.111Z,16.90
2022-10-04T12:06:05.375Z,17.20
2022-10-04T12:09:12.658Z,17.10
2022-10-04T12:12:12.006Z,17.00
2022-10-04T12:15:09.063Z,16.90
2022-10-04T12:18:07.575Z,17.00
2022-10-04T12:21:13.998Z,17.00
2022-10-04T12:24:05.736Z,17.00
2022-10-04T12:27:04.037Z,17.00
2022-10-04T12:30:04.144Z,17.10
2022-10-04T12:32:36.681Z,17.20
2022-10-04T12:35:22.403Z,17.40
2022-10-04T12:38:25.070Z,17.40
2022-10-04T12:41:12.108Z,17.40
2022-10-04T12:43:52.243Z,17.60
2022-10-04T12:46:36.220Z,17.50
2022-10-04T12:49:34.599Z,17.50
2022-10-04T12:52:27.132Z,17.40
2022-10-04T12:55:39.249Z,17.50
2022-10-04T12:58:15.521Z,17.50
2022-10-04T13:00:45.266Z,17.50
2022-10-04T13:03:40.291Z,17.50
2022-10-04T13:06:19.581Z,17.60
2022-10-04T13:09:19.781Z,17.60
2022-10-04T13:12:07.971Z,17.50
2022-10-04T13:14:47.651Z,17.50
2022-10-04T13:17:36.146Z,17.70
2022-10-04T13:20:45.365Z,17.70
2022-10-04T13:23:44.018Z,17.50
2022-10-04T13:26:33.176Z,17.40
2022-10-04T13:29:20.200Z,17.50
2022-10-04T13:31:47.331Z,17.60
2022-10-04T13:34:43.963Z,17.50
2022-10-04T13:37:39.918Z,17.50
2022-10-04T13:40:44.051Z,17.60
2022-10-04T13:43:39.681Z,17.70
2022-10-04T13:46:32.363Z,17.70
2022-10-04T13:49:24.179Z,17.70
2022-10-04T13:52:47.509Z,17.60
2022-10-04T13:55:54.460Z,17.70
2022-10-04T13:58:57.302Z,17.60
2022-10-04T14:01:38.059Z,17.60
2022-10-04T14:04:25.177Z,17.70
2022-10-04T14:07:16.326Z,17.60
2022-10-04T14:10:31.758Z,17.70
2022-10-04T14:13:24.418Z,17.70
2022-10-04T14:16:20.425Z,17.60
2022-10-04T14:19:21.189Z,17.80
2022-10-04T14:22:23.018Z,17.70
2022-10-04T14:25:21.217Z,17.50
2022-10-04T14:27:59.582Z,17.80
2022-10-04T14:30:41.528Z,17.80
2022-10-04T14:33:43.163Z,17.80
2022-10-04T14:36:40.958Z,17.90
2022-10-04T14:39:45.790Z,17.80
2022-10-04T14:42:14.515Z,17.80
2022-10-04T14:44:53.310Z,17.90
2022-10-04T14:47:38.002Z,17.80
2022-10-04T14:50:23.642Z,17.80
2022-10-04T14:53:15.092Z,17.80
2022-10-04T14:56:10.592Z,17.90
2022-10-04T14:59:20.547Z,17.80
2022-10-04T15:02:22.819Z,17.70
2022-10-04T15:05:00.216Z,17.80
2022-10-04T15:08:06.878Z,17.70
2022-10-04T15:10:49.854Z,17.70
2022-10-04T15:17:30.389Z,17.80
2022-10-04T15:20:20.684Z,17.60
2022-10-04T15:23:01.520Z,17.70
2022-10-04T15:25:52.936Z,17.70
2022-10-04T15:28:50.026Z,17.70
2022-10-04T15:31:16.850Z,17.70
2022-10-04T15:33:58.869Z,17.50
2022-10-04T15:36:49.497Z,17.50
2022-10-04T15:40:00.499Z,17.50
2022-10-04T15:42:53.272Z,17.50
2022-10-04T15:45:52.890Z,17.40
2022-10-04T15:48:57.872Z,17.40
2022-10-04T15:52:03.315Z,17.30
2022-10-04T15:54:43.708Z,17.40
2022-10-04T15:57:28.917Z,17.40
2022-10-04T16:00:19.064Z,17.40
2022-10-04T16:03:17.109Z,17.40
2022-10-04T16:05:59.889Z,17.40
2022-10-04T16:09:02.709Z,17.40
2022-10-04T16:11:46.250Z,17.30
2022-10-04T16:14:24.141Z,17.30
2022-10-04T16:17:06.588Z,17.30
2022-10-04T16:19:53.665Z,17.40
2022-10-04T16:22:34.868Z,17.10
2022-10-04T16:25:38.687Z,16.80
2022-10-04T16:28:20.392Z,16.70
2022-10-04T16:31:15.472Z,16.60
2022-10-04T16:34:31.733Z,16.60
2022-10-04T16:37:18.795Z,16.90
2022-10-04T16:40:00.686Z,17.00
2022-10-04T16:42:49.018Z,17.10
2022-10-04T16:45:34.400Z,17.10
2022-10-04T16:48:27.768Z,17.10
2022-10-04T16:51:13.152Z,17.10
2022-10-04T16:54:04.804Z,17.10
2022-10-04T16:56:59.311Z,17.10
2022-10-04T16:59:39.137Z,17.10
2022-10-04T17:02:46.137Z,17.10
2022-10-04T17:05:29.593Z,17.00
2022-10-04T17:08:21.471Z,17.00
2022-10-04T17:11:14.616Z,17.00
2022-10-04T17:13:56.953Z,17.00
2022-10-04T17:16:57.497Z,17.00
2022-10-04T17:19:29.834Z,16.90
2022-10-04T17:22:27.453Z,16.90
2022-10-04T17:25:18.490Z,17.00
2022-10-04T17:28:00.673Z,16.90
2022-10-04T17:30:30.680Z,16.90
2022-10-04T17:33:08.660Z,16.90
2022-10-04T17:36:10.424Z,17.00
2022-10-04T17:38:50.498Z,16.90
2022-10-04T17:41:48.116Z,16.90
2022-10-04T17:44:38.970Z,16.90
2022-10-04T17:47:27.689Z,16.90
2022-10-04T17:50:23.705Z,17.00
2022-10-04T17:53:17.889Z,16.90
2022-10-04T17:55:53.156Z,16.90
2022-10-04T17:58:39.884Z,16.90
2022-10-04T18:01:25.390Z,16.90
2022-10-04T18:04:08.935Z,16.80
2022-10-04T18:06:43.787Z,16.70
2022-10-04T18:09:35.696Z,16.80
2022-10-04T18:12:25.201Z,16.80
2022-10-04T18:14:58.412Z,16.80
2022-10-04T18:17:33.133Z,16.70
2022-10-04T18:20:32.122Z,16.70
2022-10-04T18:23:02.335Z,16.80
2022-10-04T18:25:33.998Z,16.80
2022-10-04T18:28:09.753Z,16.80
2022-10-04T18:30:49.051Z,16.90
2022-10-04T18:33:23.711Z,16.80
2022-10-04T18:36:00.837Z,16.80
2022-10-04T18:38:31.785Z,16.80
2022-10-04T18:41:02.908Z,16.90
2022-10-04T18:43:31.054Z,16.80
2022-10-04T18:46:21.133Z,16.60
2022-10-04T18:48:55.702Z,16.70
2022-10-04T18:51:40.577Z,16.80
2022-10-04T18:54:16.351Z,16.90
2022-10-04T18:57:17.509Z,16.80
2022-10-04T19:00:08.547Z,16.90
2022-10-04T19:02:43.305Z,16.90
2022-10-04T19:05:33.536Z,16.80
2022-10-04T19:08:29.027Z,16.70
2022-10-04T19:11:03.688Z,16.80
2022-10-04T19:13:47.753Z,16.70
2022-10-04T19:16:24.370Z,16.70
2022-10-04T19:19:00.492Z,16.80
2022-10-04T19:21:54.948Z,16.80
2022-10-04T19:24:47.541Z,16.80
2022-10-04T19:27:26.162Z,16.70
2022-10-04T19:30:15.353Z,16.60
2022-10-04T19:33:18.749Z,16.70
2022-10-04T19:36:03.621Z,16.70
2022-10-04T19:38:39.316Z,16.60
2022-10-04T19:41:26.460Z,16.60
2022-10-04T19:44:05.630Z,16.60
2022-10-04T19:46:56.114Z,16.60
2022-10-04T19:49:28.786Z,16.60
2022-10-04T19:52:13.354Z,16.70
2022-10-04T19:54:40.441Z,16.60
2022-10-04T19:57:13.066Z,16.50
2022-10-04T19:59:42.510Z,16.60
2022-10-04T20:02:10.773Z,16.70
2022-10-04T20:04:38.622Z,16.80
2022-10-04T20:07:17.885Z,16.80
2022-10-04T20:09:47.842Z,16.50
2022-10-04T20:12:45.023Z,16.70
2022-10-04T20:15:28.337Z,16.80
2022-10-04T20:17:56.273Z,16.60
2022-10-04T20:20:40.969Z,16.70
2022-10-04T20:23:08.369Z,16.70
2022-10-04T20:25:44.480Z,16.60
2022-10-04T20:28:40.230Z,16.50
2022-10-04T20:31:08.926Z,16.60
2022-10-04T20:33:48.325Z,16.70
2022-10-04T20:36:30.034Z,16.60
2022-10-04T20:39:00.937Z,16.70
2022-10-04T20:41:49.462Z,16.60
2022-10-04T20:44:41.397Z,16.50
2022-10-04T20:47:46.169Z,16.60
2022-10-04T20:50:15.063Z,16.60
2022-10-04T20:52:54.189Z,16.70
2022-10-04T20:55:27.432Z,16.60
2022-10-04T20:58:35.375Z,16.70
2022-10-04T21:01:18.380Z,16.60
2022-10-04T21:03:45.189Z,16.70
2022-10-04T21:06:12.141Z,16.60
2022-10-04T21:08:40.963Z,16.50
2022-10-04T21:11:20.263Z,16.60
2022-10-04T21:13:54.643Z,16.60
2022-10-04T21:16:47.926Z,16.50
2022-10-04T21:19:33.177Z,16.60
2022-10-04T21:22:04.478Z,16.60
2022-10-04T21:24:36.706Z,16.60
2022-10-04T21:27:04.847Z,16.60
2022-10-04T21:29:31.973Z,16.60
2022-10-04T21:31:59.448Z,16.50
2022-10-04T21:34:51.355Z,16.50
2022-10-04T21:37:12.856Z,16.50
2022-10-04T21:39:39.539Z,16.40
2022-10-04T21:42:06.223Z,16.50
2022-10-04T21:44:32.900Z,16.50
2022-10-04T21:46:59.615Z,16.60
2022-10-04T21:49:26.648Z,16.50
2022-10-04T21:51:53.408Z,16.50
2022-10-04T21:54:20.161Z,16.50
2022-10-04T21:56:47.170Z,16.50
2022-10-04T21:59:14.335Z,16.70
2022-10-04T22:01:41.453Z,16.70
2022-10-04T22:04:08.116Z,16.50
2022-10-04T22:06:34.944Z,16.60
2022-10-04T22:09:01.741Z,16.50
2022-10-04T22:11:28.522Z,16.40
2022-10-04T22:13:55.192Z,16.40
2022-10-04T22:16:21.898Z,16.30
2022-10-04T22:18:48.640Z,16.30
2022-10-04T22:21:15.441Z,16.40
2022-10-04T22:23:43.861Z,16.50
2022-10-04T22:26:18.999Z,16.40
2022-10-04T22:28:49.095Z,16.30
2022-10-04T22:31:19.327Z,16.40
2022-10-04T22:33:47.727Z,16.40
2022-10-04T22:36:25.156Z,16.30
2022-10-04T22:39:17.310Z,16.30
2022-10-04T22:41:47.290Z,16.30
2022-10-04T22:44:14.985Z,16.30
2022-10-04T22:46:44.766Z,16.30
2022-10-04T22:49:21.618Z,16.20
2022-10-04T22:51:50.448Z,16.30
2022-10-04T22:54:20.526Z,16.40
2022-10-04T22:56:48.292Z,16.50
2022-10-04T22:59:17.396Z,16.40
2022-10-04T23:02:21.990Z,16.10
2022-10-04T23:05:01.066Z,16.40
2022-10-04T23:07:27.752Z,16.50
2022-10-04T23:09:54.508Z,16.30
2022-10-04T23:12:21.488Z,16.30
2022-10-04T23:14:48.193Z,16.20
2022-10-04T23:17:29.280Z,16.30
2022-10-04T23:20:05.967Z,16.30
2022-10-04T23:22:32.691Z,16.40
2022-10-04T23:25:00.056Z,16.30
2022-10-04T23:27:26.763Z,16.20
2022-10-04T23:30:01.552Z,16.50
2022-10-04T23:32:28.768Z,16.40
2022-10-04T23:34:56.858Z,16.40
2022-10-04T23:37:27.457Z,16.40
2022-10-04T23:39:54.317Z,16.20
2022-10-04T23:42:32.032Z,16.30
2022-10-04T23:45:00.175Z,16.30
2022-10-04T23:47:34.985Z,16.30
2022-10-04T23:50:05.637Z,16.20
2022-10-04T23:52:37.095Z,16.20
2022-10-04T23:55:18.433Z,16.30
2022-10-04T23:57:45.325Z,16.30
